Accueil
METAR-TAF:

METAR-TAF

Aéroports :

Aéroport de Friedrichshafen

Friedrichshafen, Allemagne

latitude: 47-40N, longitude: 009-31E, altitude: 416 m

Observation

Le bulletin a été fait il y a 22 minutes, à 20:20 UTC
Vent 6 kt de nord
Température 8°C
Humidité 66%
Pression 1025 hPa
Visibilité 10 km ou plus

METAR: EDNY 212020Z AUTO 01006KT 9999 // NCD 08/02 Q1025

Heure: 22:42 (20:42 UTC)

Prévision

Le bulletin a été fait il y a 3 heures et 42 minutes, à 17:00 UTC
Prévision valable du 21 à 18 UTC au 22 à 18 UTC
Vent 7 kt de nord/nord-est
Visibilité 10 km ou plus
pas de nuages en-dessous de 1500 mètres et pas de cumulonimbus.
Temporairement
du 21 à 22 UTC au 22 à 08 UTC
Vent 3 kt de direction variable
Visibilité: 2000 m
Nuages fragmentés à une hauteur de 600 ft
bancs de brouillard

TAF: EDNY 211700Z 2118/2218 02007KT CAVOK TEMPO 2122/2208 VRB03KT 2000 BCFG BKN006

Observations et prévisions météorologiques de plus de 4000 aéroports (messages METAR et TAF).

Les stations disponibles sont représentées par des disques jaunes et rouges sur la carte.

Passer la souris dessus pour voir le nom de la station.

Cliquer dessus pour voir les observations et prévisions météorologiques.

Pour changer de carte: cliquez sur les boutons verts avec une croix noire pour zoomer, sur le bouton vert avec un tiret pour effectuer un zoom arrière, ou sur les flèches vertes pour les cartes adjacentes.


METAR-TAF: